地図

経路データ

SID SEASON NUMBER BASIN SUBBASIN NAME ISO_TIME NATURE LAT LON WMO_WIND WMO_PRES WMO_AGENCY TRACK_TYPE DIST2LAND LANDFALL IFLAG USA_AGENCY USA_ATCF_ID USA_LAT USA_LON USA_RECORD USA_STATUS USA_WIND USA_PRES USA_SSHS USA_R34_NE USA_R34_SE USA_R34_SW USA_R34_NW USA_R50_NE USA_R50_SE USA_R50_SW USA_R50_NW USA_R64_NE USA_R64_SE USA_R64_SW USA_R64_NW USA_POCI USA_ROCI USA_RMW USA_EYE TOKYO_LAT TOKYO_LON TOKYO_GRADE TOKYO_WIND TOKYO_PRES TOKYO_R50_DIR TOKYO_R50_LONG TOKYO_R50_SHORT TOKYO_R30_DIR TOKYO_R30_LONG TOKYO_R30_SHORT TOKYO_LAND CMA_LAT CMA_LON CMA_CAT CMA_WIND CMA_PRES HKO_LAT HKO_LON HKO_CAT HKO_WIND HKO_PRES NEWDELHI_LAT NEWDELHI_LON NEWDELHI_GRADE NEWDELHI_WIND NEWDELHI_PRES NEWDELHI_CI NEWDELHI_DP NEWDELHI_POCI REUNION_LAT REUNION_LON REUNION_TYPE REUNION_WIND REUNION_PRES REUNION_TNUM REUNION_CI REUNION_RMW REUNION_R34_NE REUNION_R34_SE REUNION_R34_SW REUNION_R34_NW REUNION_R50_NE REUNION_R50_SE REUNION_R50_SW REUNION_R50_NW REUNION_R64_NE REUNION_R64_SE REUNION_R64_SW REUNION_R64_NW BOM_LAT BOM_LON BOM_TYPE BOM_WIND BOM_PRES BOM_TNUM BOM_CI BOM_RMW BOM_R34_NE BOM_R34_SE BOM_R34_SW BOM_R34_NW BOM_R50_NE BOM_R50_SE BOM_R50_SW BOM_R50_NW BOM_R64_NE BOM_R64_SE BOM_R64_SW BOM_R64_NW BOM_ROCI BOM_POCI BOM_EYE BOM_POS_METHOD BOM_PRES_METHOD NADI_LAT NADI_LON NADI_CAT NADI_WIND NADI_PRES WELLINGTON_LAT WELLINGTON_LON WELLINGTON_WIND WELLINGTON_PRES DS824_LAT DS824_LON DS824_STAGE DS824_WIND DS824_PRES TD9636_LAT TD9636_LON TD9636_STAGE TD9636_WIND TD9636_PRES TD9635_LAT TD9635_LON TD9635_WIND TD9635_PRES TD9635_ROCI NEUMANN_LAT NEUMANN_LON NEUMANN_CLASS NEUMANN_WIND NEUMANN_PRES MLC_LAT MLC_LON MLC_CLASS MLC_WIND MLC_PRES USA_GUST BOM_GUST BOM_GUST_PER REUNION_GUST REUNION_GUST_PER USA_SEAHGT USA_SEARAD_NE USA_SEARAD_SE USA_SEARAD_SW USA_SEARAD_NW STORM_SPEED STORM_DIR
1860042S17057 1860 7 SI MM NOT_NAMED 1860-02-11 06:00:00 NR -17.0000 57.2000 reunion main 348 328 _____O________ -1 -17.0000 57.2000 99 9.90000 8 233
1860042S17057 1860 7 SI MM NOT_NAMED 1860-02-11 09:00:00 NR -17.2349 56.8778 main 330 305 _____P________ -1 -17.2349 56.8778 99 8 233
1860042S17057 1860 7 SI MM NOT_NAMED 1860-02-11 12:00:00 NR -17.4674 56.5571 main 305 296 _____P________ -1 -17.4674 56.5571 99 8 233
1860042S17057 1860 7 SI MM NOT_NAMED 1860-02-11 15:00:00 NR -17.6954 56.2402 main 301 291 _____P________ -1 -17.6954 56.2402 99 8 233
1860042S17057 1860 7 SI MM NOT_NAMED 1860-02-11 18:00:00 NR -17.9170 55.9297 main 298 288 _____P________ -1 -17.9170 55.9297 99 7 233
1860042S17057 1860 7 SI MM NOT_NAMED 1860-02-11 21:00:00 NR -18.1302 55.6280 main 299 291 _____P________ -1 -18.1302 55.6280 99 7 234
1860042S17057 1860 7 SI MM NOT_NAMED 1860-02-12 00:00:00 NR -18.3330 55.3374 main 302 279 _____P________ -1 -18.3330 55.3374 99 7 234
1860042S17057 1860 7 SI MM NOT_NAMED 1860-02-12 03:00:00 NR -18.5236 55.0606 main 280 260 _____P________ -1 -18.5236 55.0606 99 6 234
1860042S17057 1860 7 SI MM NOT_NAMED 1860-02-12 06:00:00 NR -18.7000 54.8000 reunion main 262 246 _____O________ -1 -18.7000 54.8000 99 9.90000 6 235
1860042S17057 1860 7 SI MM NOT_NAMED 1860-02-12 09:00:00 NR -18.8623 54.5574 main 246 242 _____P________ -1 -18.8623 54.5574 99 5 234
1860042S17057 1860 7 SI MM NOT_NAMED 1860-02-12 12:00:00 NR -19.0188 54.3314 main 246 231 _____P________ -1 -19.0188 54.3314 99 5 232
1860042S17057 1860 7 SI MM NOT_NAMED 1860-02-12 15:00:00 NR -19.1794 54.1198 main 237 233 _____P________ -1 -19.1794 54.1198 99 5 229
1860042S17057 1860 7 SI MM NOT_NAMED 1860-02-12 18:00:00 NR -19.3543 53.9206 main 231 229 _____P________ -1 -19.3543 53.9206 99 5 224
1860042S17057 1860 7 SI MM NOT_NAMED 1860-02-12 21:00:00 NR -19.5538 53.7313 main 228 221 _____P________ -1 -19.5538 53.7313 99 6 219
1860042S17057 1860 7 SI MM NOT_NAMED 1860-02-13 00:00:00 NR -19.7878 53.5498 main 229 222 _____P________ -1 -19.7878 53.5498 99 6 213
1860042S17057 1860 7 SI MM NOT_NAMED 1860-02-13 03:00:00 NR -20.0665 53.3735 main 218 216 _____P________ -1 -20.0665 53.3735 99 7 208
1860042S17057 1860 7 SI MM NOT_NAMED 1860-02-13 06:00:00 NR -20.4000 53.2000 reunion main 222 218 _____O________ -1 -20.4000 53.2000 99 9.90000 9 206
1860042S17057 1860 7 SI MM NOT_NAMED 1860-02-13 09:00:00 NR -20.8359 52.9765 main 230 229 _____P________ -1 -20.8359 52.9765 99 10 204
1860042S17057 1860 7 SI MM NOT_NAMED 1860-02-13 12:00:00 NR -21.3292 52.7519 main 249 249 _____P________ -1 -21.3292 52.7519 99 11 202
1860042S17057 1860 7 SI MM NOT_NAMED 1860-02-13 15:00:00 NR -21.8655 52.5335 main 293 293 _____P________ -1 -21.8655 52.5335 99 12 200
1860042S17057 1860 7 SI MM NOT_NAMED 1860-02-13 18:00:00 NR -22.4308 52.3285 main 332 332 _____P________ -1 -22.4308 52.3285 99 12 197
1860042S17057 1860 7 SI MM NOT_NAMED 1860-02-13 21:00:00 NR -23.0110 52.1448 main 380 380 _____P________ -1 -23.0110 52.1448 99 12 195
1860042S17057 1860 7 SI MM NOT_NAMED 1860-02-14 00:00:00 NR -23.5919 51.9901 main 425 425 _____P________ -1 -23.5919 51.9901 99 12 192
1860042S17057 1860 7 SI MM NOT_NAMED 1860-02-14 03:00:00 NR -24.1596 51.8724 main 436 428 _____P________ -1 -24.1596 51.8724 99 11 189
1860042S17057 1860 7 SI MM NOT_NAMED 1860-02-14 06:00:00 NR -24.7000 51.8000 reunion main 440 440 _____O________ -1 -24.7000 51.8000 99 9.90000 10 184
1860042S17057 1860 7 SI MM NOT_NAMED 1860-02-14 09:00:00 NR -25.1890 51.7852 main 454 454 _____P________ -1 -25.1890 51.7852 99 10 179
1860042S17057 1860 7 SI MM NOT_NAMED 1860-02-14 12:00:00 NR -25.6608 51.8165 main 472 472 _____P________ -1 -25.6608 51.8165 99 9 174
1860042S17057 1860 7 SI MM NOT_NAMED 1860-02-14 15:00:00 NR -26.1132 51.8873 main 495 495 _____P________ -1 -26.1132 51.8873 99 9 170
1860042S17057 1860 7 SI MM NOT_NAMED 1860-02-14 18:00:00 NR -26.5438 51.9911 main 518 518 _____P________ -1 -26.5438 51.9911 99 9 166
1860042S17057 1860 7 SI MM NOT_NAMED 1860-02-14 21:00:00 NR -26.9502 52.1212 main 546 546 _____P________ -1 -26.9502 52.1212 99 8 162
1860042S17057 1860 7 SI MM NOT_NAMED 1860-02-15 00:00:00 NR -27.3300 52.2708 main 578 578 _____P________ -1 -27.3300 52.2708 99 8 159
1860042S17057 1860 7 SI MM NOT_NAMED 1860-02-15 03:00:00 NR -27.6807 52.4327 main 607 607 _____P________ -1 -27.6807 52.4327 99 7 157
1860042S17057 1860 7 SI MM NOT_NAMED 1860-02-15 06:00:00 NR -28.0000 52.6000 reunion main 641 641 _____O________ -1 -28.0000 52.6000 99 9.90000 7 156
1860042S17057 1860 7 SI MM NOT_NAMED 1860-02-15 09:00:00 NR -28.3022 52.7414 main 666 666 _____P________ -1 -28.3022 52.7414 99 6 156
1860042S17057 1860 7 SI MM NOT_NAMED 1860-02-15 12:00:00 NR -28.5725 52.8934 main 701 701 _____P________ -1 -28.5725 52.8934 99 6 152
1860042S17057 1860 7 SI MM NOT_NAMED 1860-02-15 15:00:00 NR -28.8140 53.0538 main 730 730 _____P________ -1 -28.8140 53.0538 99 5 148
1860042S17057 1860 7 SI MM NOT_NAMED 1860-02-15 18:00:00 NR -29.0300 53.2203 main 750 750 _____P________ -1 -29.0300 53.2203 99 5 144
1860042S17057 1860 7 SI MM NOT_NAMED 1860-02-15 21:00:00 NR -29.2234 53.3905 main 779 779 _____P________ -1 -29.2234 53.3905 99 5 141
1860042S17057 1860 7 SI MM NOT_NAMED 1860-02-16 00:00:00 NR -29.3975 53.5621 main 808 808 _____P________ -1 -29.3975 53.5621 99 4 138
1860042S17057 1860 7 SI MM NOT_NAMED 1860-02-16 03:00:00 NR -29.5553 53.7327 main 829 829 _____P________ -1 -29.5553 53.7327 99 4 136
1860042S17057 1860 7 SI MM NOT_NAMED 1860-02-16 06:00:00 NR -29.7000 53.9000 reunion main 851 851 _____O________ -1 -29.7000 53.9000 99 9.90000 4 134
1860042S17057 1860 7 SI MM NOT_NAMED 1860-02-16 09:00:00 NR -29.8344 54.0622 main 873 873 _____P________ -1 -29.8344 54.0622 99 4 133
1860042S17057 1860 7 SI MM NOT_NAMED 1860-02-16 12:00:00 NR -29.9601 54.2194 main 894 894 _____P________ -1 -29.9601 54.2194 99 4 132
1860042S17057 1860 7 SI MM NOT_NAMED 1860-02-16 15:00:00 NR -30.0784 54.3725 main 916 916 _____P________ -1 -30.0784 54.3725 99 3 131
1860042S17057 1860 7 SI MM NOT_NAMED 1860-02-16 18:00:00 NR -30.1903 54.5220 main 931 931 _____P________ -1 -30.1903 54.5220 99 3 130
1860042S17057 1860 7 SI MM NOT_NAMED 1860-02-16 21:00:00 NR -30.2972 54.6688 main 953 953 _____P________ -1 -30.2972 54.6688 99 3 130
1860042S17057 1860 7 SI MM NOT_NAMED 1860-02-17 00:00:00 NR -30.4003 54.8135 main 967 967 _____P________ -1 -30.4003 54.8135 99 3 130
1860042S17057 1860 7 SI MM NOT_NAMED 1860-02-17 03:00:00 NR -30.5009 54.9570 main 989 989 _____P________ -1 -30.5009 54.9570 99 3 129
1860042S17057 1860 7 SI MM NOT_NAMED 1860-02-17 06:00:00 NR -30.6000 55.1000 reunion main 1003 _____O________ -1 -30.6000 55.1000 99 9.90000 3 129

IBTrACS Databaseについて

本データベースは、米国NOAAが公開する1842年以降の世界の熱帯低気圧のベストトラックデータアーカイブInternational Best Track Archive for Climate Stewardship (IBTrACS)を、ウェブで閲覧しやすい形式に変換したものです。

最終更新日:2021-12-06